createdAt,value
2023-05-19T04:08:22.200Z,21.20
2023-05-19T04:10:54.360Z,21.00
2023-05-19T04:13:26.660Z,21.00
2023-05-19T04:15:57.960Z,20.90
2023-05-19T04:18:31.933Z,20.70
2023-05-19T04:21:02.957Z,20.70
2023-05-19T04:23:35.840Z,20.60
2023-05-19T04:26:08.868Z,20.60
2023-05-19T04:28:43.163Z,20.50
2023-05-19T04:31:15.320Z,20.50
2023-05-19T04:33:47.581Z,20.40
2023-05-19T04:36:22.489Z,20.40
2023-05-19T04:39:03.362Z,20.30
2023-05-19T04:41:35.626Z,20.10
2023-05-19T04:44:08.608Z,20.00
2023-05-19T04:46:40.068Z,19.90
2023-05-19T04:49:13.655Z,19.90
2023-05-19T04:51:47.687Z,19.90
2023-05-19T04:54:21.238Z,19.80
2023-05-19T04:56:52.020Z,19.70
2023-05-19T04:59:23.218Z,19.70
2023-05-19T05:01:54.322Z,19.70
2023-05-19T05:04:25.165Z,19.60
2023-05-19T05:06:57.951Z,19.50
2023-05-19T05:09:32.000Z,19.50
2023-05-19T05:12:06.276Z,19.40
2023-05-19T05:14:38.551Z,19.40
2023-05-19T05:17:11.078Z,19.30
2023-05-19T05:19:45.101Z,19.30
2023-05-19T05:22:17.228Z,19.20
2023-05-19T05:24:53.797Z,19.20
2023-05-19T05:27:25.410Z,19.10
2023-05-19T05:29:58.589Z,19.10
2023-05-19T05:32:30.854Z,19.00
2023-05-19T05:35:02.917Z,18.90
2023-05-19T05:37:35.684Z,18.90
2023-05-19T05:40:11.406Z,18.80
2023-05-19T05:42:44.843Z,18.80
2023-05-19T05:45:16.693Z,18.70
2023-05-19T05:47:48.538Z,18.60
2023-05-19T05:50:21.377Z,18.50
2023-05-19T05:52:53.719Z,18.50
2023-05-19T05:55:28.505Z,18.40
2023-05-19T05:58:00.326Z,18.30
2023-05-19T06:00:32.107Z,18.20
2023-05-19T06:03:04.157Z,18.20
2023-05-19T06:05:35.435Z,18.10
2023-05-19T06:08:08.660Z,18.00
2023-05-19T06:10:47.191Z,18.00
2023-05-19T06:13:24.251Z,18.00
2023-05-19T06:15:58.438Z,17.90
2023-05-19T06:18:30.230Z,17.90
2023-05-19T06:21:01.662Z,17.80
2023-05-19T06:23:34.760Z,17.80
2023-05-19T06:26:08.634Z,17.70
2023-05-19T06:28:40.527Z,17.70
2023-05-19T06:31:12.017Z,17.70
2023-05-19T06:33:42.764Z,17.70
2023-05-19T06:36:15.062Z,17.60
2023-05-19T06:38:46.355Z,17.50
2023-05-19T06:41:22.135Z,17.40
2023-05-19T06:43:53.499Z,17.40
2023-05-19T06:46:24.293Z,17.40
2023-05-19T06:48:55.890Z,17.40
2023-05-19T06:51:27.901Z,17.40
2023-05-19T06:53:59.972Z,17.30
2023-05-19T06:56:36.568Z,17.30
2023-05-19T06:59:08.063Z,17.30
2023-05-19T07:01:40.162Z,17.20
2023-05-19T07:04:11.412Z,17.20
2023-05-19T07:06:42.296Z,17.20
2023-05-19T07:09:14.012Z,17.20
2023-05-19T07:11:48.218Z,17.10
2023-05-19T07:14:20.235Z,17.10
2023-05-19T07:16:51.500Z,17.00
2023-05-19T07:19:23.445Z,16.90
2023-05-19T07:21:54.467Z,16.90
2023-05-19T07:24:26.062Z,16.80
2023-05-19T07:26:59.562Z,16.80
2023-05-19T07:29:31.274Z,16.80
2023-05-19T07:32:03.075Z,16.80
2023-05-19T07:34:34.805Z,16.80
2023-05-19T07:37:06.085Z,16.70
2023-05-19T07:39:38.960Z,16.70
2023-05-19T07:42:14.286Z,16.70
2023-05-19T07:44:45.356Z,16.70
2023-05-19T07:47:17.095Z,16.60
2023-05-19T07:49:50.268Z,16.50
2023-05-19T07:52:23.205Z,16.30
2023-05-19T07:54:54.823Z,16.20
2023-05-19T07:57:27.892Z,16.20
2023-05-19T08:00:00.279Z,16.10
2023-05-19T08:02:31.324Z,16.10
2023-05-19T08:05:03.399Z,16.00
2023-05-19T08:07:35.711Z,15.90
2023-05-19T08:10:07.228Z,15.90
2023-05-19T08:12:40.904Z,15.90
2023-05-19T08:15:13.854Z,15.90
2023-05-19T08:17:44.895Z,15.90
2023-05-19T08:20:16.029Z,15.80
2023-05-19T08:22:47.123Z,15.80
2023-05-19T08:25:18.554Z,15.80
2023-05-19T08:27:51.923Z,15.80
2023-05-19T08:30:23.462Z,15.80
2023-05-19T08:32:54.694Z,15.80
2023-05-19T08:35:26.040Z,15.90
2023-05-19T08:37:57.261Z,15.80
2023-05-19T08:40:32.549Z,15.80
2023-05-19T08:43:05.406Z,15.80
2023-05-19T08:45:37.169Z,15.80
2023-05-19T08:48:09.980Z,15.80
2023-05-19T08:50:45.381Z,15.80
2023-05-19T08:53:33.392Z,15.70
2023-05-19T08:56:12.506Z,15.60
2023-05-19T08:58:46.314Z,15.60
2023-05-19T09:01:19.105Z,15.50
2023-05-19T09:03:51.916Z,15.50
2023-05-19T09:06:23.352Z,15.50
2023-05-19T09:08:54.825Z,15.50
2023-05-19T09:11:27.057Z,15.50
2023-05-19T09:14:00.188Z,15.50
2023-05-19T09:16:33.573Z,15.40
2023-05-19T09:19:05.311Z,15.40
2023-05-19T09:21:37.701Z,15.30
2023-05-19T09:24:10.624Z,15.30
2023-05-19T09:26:43.288Z,15.30
2023-05-19T09:29:20.815Z,15.30
2023-05-19T09:31:54.184Z,15.30
2023-05-19T09:34:27.995Z,15.20
2023-05-19T09:37:00.548Z,15.20
2023-05-19T09:39:31.759Z,15.10
2023-05-19T09:42:07.692Z,15.10
2023-05-19T09:44:41.240Z,15.10
2023-05-19T09:47:14.185Z,15.10
2023-05-19T09:49:50.797Z,15.10
2023-05-19T09:52:22.857Z,15.00
2023-05-19T09:54:55.933Z,15.00
2023-05-19T09:57:31.070Z,14.90
2023-05-19T10:00:10.658Z,14.90
2023-05-19T10:02:45.470Z,14.80
2023-05-19T10:05:21.913Z,14.80
2023-05-19T10:07:55.608Z,14.80
2023-05-19T10:10:27.006Z,14.70
2023-05-19T10:12:58.657Z,14.60
2023-05-19T10:15:33.160Z,14.50
2023-05-19T10:18:08.670Z,14.50
2023-05-19T10:20:40.819Z,14.50
2023-05-19T10:23:12.125Z,14.40
2023-05-19T10:25:45.301Z,14.40
2023-05-19T10:28:21.580Z,14.40
2023-05-19T10:31:00.550Z,14.40
2023-05-19T10:33:43.522Z,14.50
2023-05-19T10:36:33.306Z,14.50
2023-05-19T10:39:09.415Z,14.40
2023-05-19T10:41:51.144Z,14.40
2023-05-19T10:44:34.383Z,14.40
2023-05-19T10:47:13.490Z,14.40
2023-05-19T10:49:45.027Z,14.30
2023-05-19T10:52:26.601Z,14.30
2023-05-19T10:54:59.862Z,14.30
2023-05-19T10:57:34.098Z,14.30
2023-05-19T11:00:12.663Z,14.30
2023-05-19T11:02:47.161Z,14.30
2023-05-19T11:05:20.639Z,14.30
2023-05-19T11:08:04.280Z,14.30
2023-05-19T11:10:36.680Z,14.30
2023-05-19T11:13:09.078Z,14.30
2023-05-19T11:15:40.144Z,14.20
2023-05-19T11:18:14.454Z,14.20
2023-05-19T11:20:46.310Z,14.30
2023-05-19T11:23:21.222Z,14.30
2023-05-19T11:25:54.888Z,14.30
2023-05-19T11:28:30.114Z,14.20
2023-05-19T11:31:09.355Z,14.20
2023-05-19T11:33:43.091Z,14.20
2023-05-19T11:36:18.154Z,14.20
2023-05-19T11:38:50.489Z,14.20
2023-05-19T11:41:22.249Z,14.10
2023-05-19T11:43:54.079Z,14.10
2023-05-19T11:46:24.912Z,13.90
2023-05-19T11:48:58.914Z,13.80
2023-05-19T11:51:30.410Z,13.70
2023-05-19T11:54:01.964Z,13.60
2023-05-19T11:56:38.653Z,13.60
2023-05-19T11:59:09.900Z,13.60
2023-05-19T12:01:41.528Z,13.70
2023-05-19T12:04:14.981Z,13.70
2023-05-19T12:06:47.007Z,13.70
2023-05-19T12:09:18.498Z,13.80
2023-05-19T12:11:50.937Z,13.80
2023-05-19T12:14:23.417Z,13.80
2023-05-19T12:16:54.976Z,13.80
2023-05-19T12:19:29.326Z,13.80
2023-05-19T12:22:02.812Z,13.70
2023-05-19T12:24:36.515Z,13.80
2023-05-19T12:27:16.801Z,13.70
2023-05-19T12:29:52.967Z,13.70
2023-05-19T12:32:27.204Z,13.70
2023-05-19T12:35:01.939Z,13.70
2023-05-19T12:37:34.661Z,13.70
2023-05-19T12:40:07.323Z,13.70
2023-05-19T12:42:38.863Z,13.70
2023-05-19T12:45:11.170Z,13.70
2023-05-19T12:47:42.386Z,13.70
2023-05-19T12:50:17.722Z,13.70
2023-05-19T12:52:52.706Z,13.70
2023-05-19T12:55:24.318Z,13.70
2023-05-19T12:57:58.968Z,13.70
2023-05-19T13:00:33.758Z,13.70
2023-05-19T13:03:07.414Z,13.80
2023-05-19T13:05:44.551Z,13.70
2023-05-19T13:08:18.472Z,13.80
2023-05-19T13:10:51.707Z,13.90
2023-05-19T13:13:23.075Z,13.90
2023-05-19T13:15:54.812Z,14.00
2023-05-19T13:18:33.359Z,14.00
2023-05-19T13:21:06.833Z,13.90
2023-05-19T13:23:38.520Z,13.90
2023-05-19T13:26:13.110Z,13.90
2023-05-19T13:28:44.421Z,14.00
2023-05-19T13:31:16.436Z,14.00
2023-05-19T13:33:49.629Z,14.00
2023-05-19T13:36:22.331Z,14.00
2023-05-19T13:38:53.773Z,14.00
2023-05-19T13:41:28.324Z,14.10
2023-05-19T13:44:01.209Z,14.10
2023-05-19T13:46:44.157Z,14.10
2023-05-19T13:49:17.310Z,14.10
2023-05-19T13:51:50.921Z,14.20
2023-05-19T13:54:22.435Z,14.30
2023-05-19T13:56:53.860Z,14.40
2023-05-19T13:59:25.556Z,14.40
2023-05-19T14:01:57.575Z,14.50
2023-05-19T14:04:28.710Z,14.50
2023-05-19T14:07:03.050Z,14.60
2023-05-19T14:09:34.110Z,14.60
2023-05-19T14:12:05.022Z,14.70
2023-05-19T14:14:36.616Z,14.70
2023-05-19T14:17:08.703Z,14.80
2023-05-19T14:19:39.740Z,14.90
2023-05-19T14:22:14.866Z,14.90
2023-05-19T14:24:45.850Z,14.80
2023-05-19T14:27:17.066Z,14.90
2023-05-19T14:29:50.406Z,14.80
2023-05-19T14:32:22.075Z,14.90
2023-05-19T14:34:53.738Z,15.10
2023-05-19T14:37:27.375Z,15.00
2023-05-19T14:39:59.312Z,15.20
2023-05-19T14:42:30.821Z,15.30
2023-05-19T14:45:03.132Z,15.40
2023-05-19T14:47:35.123Z,15.50
2023-05-19T14:50:07.069Z,15.60
2023-05-19T14:52:40.958Z,15.60
2023-05-19T14:55:12.628Z,15.70
2023-05-19T14:57:43.983Z,15.70
2023-05-19T15:00:16.314Z,15.80
2023-05-19T15:02:47.801Z,15.80
2023-05-19T15:05:20.172Z,15.80
2023-05-19T15:07:53.076Z,15.90
2023-05-19T15:10:25.344Z,15.80
2023-05-19T15:12:58.057Z,15.80
2023-05-19T15:15:29.882Z,15.80
2023-05-19T15:18:02.492Z,15.90
2023-05-19T15:20:33.928Z,16.10
2023-05-19T15:23:07.658Z,16.10
2023-05-19T15:25:39.486Z,15.80
2023-05-19T15:28:11.740Z,15.90
2023-05-19T15:30:44.312Z,15.70
2023-05-19T15:33:16.706Z,15.90
2023-05-19T15:35:48.749Z,16.00
2023-05-19T15:38:22.290Z,16.10
2023-05-19T15:40:53.790Z,16.10
2023-05-19T15:43:25.434Z,16.00
2023-05-19T15:45:57.256Z,15.90
2023-05-19T15:48:29.969Z,16.00
2023-05-19T15:51:02.048Z,16.10
2023-05-19T15:53:35.693Z,16.20
2023-05-19T15:56:07.463Z,16.20
2023-05-19T15:58:38.924Z,16.30
2023-05-19T16:01:11.943Z,16.30
2023-05-19T16:03:44.019Z,16.30
2023-05-19T16:06:15.623Z,16.10
2023-05-19T16:08:49.546Z,16.00
2023-05-19T16:11:21.678Z,16.20
2023-05-19T16:13:53.682Z,16.40
2023-05-19T16:16:25.091Z,16.50
2023-05-19T16:18:57.065Z,16.70
2023-05-19T16:21:28.149Z,16.70
2023-05-19T16:24:01.457Z,16.70
2023-05-19T16:26:33.976Z,16.50
2023-05-19T16:29:04.985Z,16.40
2023-05-19T16:31:36.768Z,16.60
2023-05-19T16:34:08.418Z,16.70
2023-05-19T16:36:39.863Z,16.90
2023-05-19T16:39:13.148Z,17.10
2023-05-19T16:41:46.018Z,17.20
2023-05-19T16:44:18.142Z,17.20
2023-05-19T16:46:49.419Z,17.20
2023-05-19T16:49:20.129Z,17.20
2023-05-19T16:51:51.109Z,17.10
2023-05-19T16:54:24.447Z,17.10
2023-05-19T16:56:55.250Z,16.90
2023-05-19T16:59:25.977Z,17.30
2023-05-19T17:01:57.827Z,17.50
2023-05-19T17:04:30.752Z,17.50
2023-05-19T17:07:01.902Z,17.60
2023-05-19T17:09:34.619Z,17.50
2023-05-19T17:12:05.688Z,17.60
2023-05-19T17:14:36.773Z,17.70
2023-05-19T17:17:08.234Z,18.00
2023-05-19T17:19:39.543Z,18.10
2023-05-19T17:22:10.785Z,18.40
2023-05-19T17:24:43.216Z,18.70
2023-05-19T17:27:13.945Z,18.60
2023-05-19T17:29:45.234Z,18.30
2023-05-19T17:32:16.238Z,18.50
2023-05-19T17:34:47.203Z,18.60
2023-05-19T17:37:20.538Z,18.80
2023-05-19T17:39:53.366Z,19.10
2023-05-19T17:42:24.235Z,19.20
2023-05-19T17:44:55.462Z,19.30
2023-05-19T17:47:26.249Z,19.20
2023-05-19T17:49:57.252Z,18.90
2023-05-19T17:52:29.150Z,19.00
2023-05-19T17:55:02.341Z,19.00
2023-05-19T17:57:36.159Z,18.80
2023-05-19T18:00:09.079Z,18.70
2023-05-19T18:02:41.201Z,18.60
2023-05-19T18:05:13.565Z,18.70
2023-05-19T18:07:46.665Z,18.80
2023-05-19T18:10:20.949Z,18.60
2023-05-19T18:12:52.360Z,18.70
2023-05-19T18:15:23.327Z,18.90
2023-05-19T18:17:54.114Z,18.90
2023-05-19T18:20:24.949Z,18.70
2023-05-19T18:22:55.706Z,18.30
2023-05-19T18:25:28.372Z,18.50
2023-05-19T18:27:59.135Z,18.70
2023-05-19T18:30:30.699Z,19.00
2023-05-19T18:33:04.421Z,19.10
2023-05-19T18:35:35.229Z,19.00
2023-05-19T18:38:06.033Z,19.10
2023-05-19T18:40:38.371Z,19.00
2023-05-19T18:43:09.114Z,19.10
2023-05-19T18:45:40.309Z,19.10
2023-05-19T18:48:11.684Z,19.20
2023-05-19T18:50:44.585Z,19.50
2023-05-19T18:53:16.250Z,19.70
2023-05-19T18:55:48.655Z,19.50
2023-05-19T18:58:20.610Z,19.60
2023-05-19T19:00:51.392Z,19.30
2023-05-19T19:03:22.133Z,19.40
2023-05-19T19:05:58.273Z,19.60
2023-05-19T19:08:29.138Z,19.50
2023-05-19T19:11:01.943Z,19.70
2023-05-19T19:13:32.652Z,19.90
2023-05-19T19:16:03.360Z,19.90
2023-05-19T19:18:35.394Z,19.50
2023-05-19T19:21:06.390Z,19.60
2023-05-19T19:23:37.134Z,19.70
2023-05-19T19:26:10.353Z,19.90
2023-05-19T19:28:41.254Z,19.70
2023-05-19T19:31:12.002Z,20.00
2023-05-19T19:33:44.225Z,20.10
2023-05-19T19:36:15.463Z,20.10
2023-05-19T19:38:46.199Z,20.20
2023-05-19T19:41:20.603Z,20.20
2023-05-19T19:43:51.770Z,19.90
2023-05-19T19:46:22.536Z,19.90
2023-05-19T19:48:54.144Z,20.10
2023-05-19T19:51:24.893Z,20.30
2023-05-19T19:53:55.676Z,20.30
2023-05-19T19:56:28.373Z,20.50
2023-05-19T19:58:59.396Z,20.60
2023-05-19T20:01:30.398Z,20.60
2023-05-19T20:04:01.716Z,20.80
2023-05-19T20:06:33.221Z,21.00
2023-05-19T20:09:04.018Z,21.00
2023-05-19T20:11:36.459Z,21.10
2023-05-19T20:14:07.223Z,21.20
2023-05-19T20:16:38.602Z,21.40
2023-05-19T20:19:09.577Z,21.50
2023-05-19T20:21:40.431Z,21.60
2023-05-19T20:24:11.202Z,21.60
2023-05-19T20:26:44.091Z,21.40
2023-05-19T20:29:14.872Z,21.40
2023-05-19T20:31:47.408Z,21.30
2023-05-19T20:34:18.218Z,21.60
2023-05-19T20:36:49.277Z,21.90
2023-05-19T20:39:20.441Z,21.80
2023-05-19T20:41:53.426Z,22.10
2023-05-19T20:44:24.121Z,22.20
2023-05-19T20:46:55.452Z,22.30
2023-05-19T20:49:26.203Z,22.30
2023-05-19T20:51:57.585Z,22.40
2023-05-19T20:54:28.335Z,22.10
2023-05-19T20:57:01.118Z,22.30
2023-05-19T20:59:31.860Z,22.40
2023-05-19T21:02:03.285Z,22.50
2023-05-19T21:04:34.210Z,22.40
2023-05-19T21:07:05.534Z,22.70
2023-05-19T21:09:36.542Z,22.90
2023-05-19T21:12:09.526Z,22.80
2023-05-19T21:14:40.253Z,23.00
2023-05-19T21:17:11.311Z,23.20
2023-05-19T21:19:42.310Z,23.40
2023-05-19T21:22:13.821Z,23.60
2023-05-19T21:24:44.566Z,23.70
2023-05-19T21:27:18.216Z,24.10
2023-05-19T21:29:49.025Z,23.80
2023-05-19T21:32:19.883Z,23.90
2023-05-19T21:34:50.882Z,24.00
2023-05-19T21:37:22.493Z,23.80
2023-05-19T21:39:53.689Z,24.00
2023-05-19T21:42:27.291Z,24.30
2023-05-19T21:44:58.908Z,24.50
2023-05-19T21:47:31.770Z,24.20
2023-05-19T21:50:03.566Z,24.20
2023-05-19T21:52:37.316Z,24.20
2023-05-19T21:55:09.511Z,24.40
2023-05-19T21:57:43.387Z,24.80
2023-05-19T22:00:16.529Z,25.00
2023-05-19T22:02:48.894Z,25.00
2023-05-19T22:05:20.648Z,24.80
2023-05-19T22:07:51.478Z,24.90
2023-05-19T22:10:24.115Z,24.80
2023-05-19T22:12:58.357Z,24.80
2023-05-19T22:15:30.123Z,24.80
2023-05-19T22:18:02.114Z,24.90
2023-05-19T22:20:34.170Z,25.20
2023-05-19T22:23:06.504Z,25.60
2023-05-19T22:25:37.858Z,26.00
2023-05-19T22:28:12.658Z,26.60
2023-05-19T22:30:45.198Z,26.80
2023-05-19T22:33:16.368Z,26.80
2023-05-19T22:35:48.234Z,26.70
2023-05-19T22:38:19.778Z,26.70
2023-05-19T22:40:51.692Z,26.70
2023-05-19T22:43:28.210Z,26.80
2023-05-19T22:46:00.169Z,26.80
2023-05-19T23:02:05.792Z,27.70
2023-05-19T23:04:38.694Z,27.70
2023-05-19T23:07:11.058Z,27.60
2023-05-19T23:09:43.852Z,27.20
2023-05-19T23:12:15.736Z,27.50
2023-05-19T23:14:47.492Z,27.70
2023-05-19T23:17:20.566Z,27.90
2023-05-19T23:19:52.606Z,28.10
2023-05-19T23:25:38.481Z,28.10
2023-05-19T23:28:12.543Z,28.10
2023-05-19T23:30:44.710Z,28.00
2023-05-19T23:33:20.388Z,27.90
2023-05-19T23:35:52.197Z,27.70
2023-05-19T23:38:24.395Z,27.70
2023-05-19T23:40:56.210Z,27.80
2023-05-19T23:43:27.789Z,27.80
2023-05-19T23:46:00.729Z,27.80
2023-05-19T23:48:38.527Z,27.80
2023-05-19T23:51:09.896Z,27.90
2023-05-19T23:53:41.764Z,27.90
2023-05-19T23:56:14.362Z,27.90
